sensor_id;sensor_type;location;lat;lon;timestamp;pressure;altitude;pressure_sealevel;temperature;humidity
70954;BME280;58618;47.490;8.736;2023-02-03T00:02:23;98011.84;;;4.21;91.79
70954;BME280;58618;47.490;8.736;2023-02-03T00:04:50;98013.00;;;4.05;92.02
70954;BME280;58618;47.490;8.736;2023-02-03T00:07:17;98008.66;;;3.99;92.91
70954;BME280;58618;47.490;8.736;2023-02-03T00:09:44;98005.72;;;4.02;92.09
70954;BME280;58618;47.490;8.736;2023-02-03T00:12:13;98002.81;;;4.12;92.86
70954;BME280;58618;47.490;8.736;2023-02-03T00:14:40;97990.25;;;4.17;91.32
70954;BME280;58618;47.490;8.736;2023-02-03T00:17:08;98002.22;;;4.10;91.85
70954;BME280;58618;47.490;8.736;2023-02-03T00:19:36;97995.72;;;4.01;92.22
70954;BME280;58618;47.490;8.736;2023-02-03T00:22:03;97987.84;;;3.89;92.72
70954;BME280;58618;47.490;8.736;2023-02-03T00:24:30;97983.50;;;3.83;93.95
70954;BME280;58618;47.490;8.736;2023-02-03T00:26:58;97986.22;;;3.81;92.66
70954;BME280;58618;47.490;8.736;2023-02-03T00:29:25;97978.78;;;3.87;93.83
70954;BME280;58618;47.490;8.736;2023-02-03T00:31:53;97986.44;;;3.87;92.84
70954;BME280;58618;47.490;8.736;2023-02-03T00:34:21;97991.88;;;3.70;92.33
70954;BME280;58618;47.490;8.736;2023-02-03T00:36:48;98004.22;;;3.54;93.37
70954;BME280;58618;47.490;8.736;2023-02-03T00:39:16;98011.97;;;3.39;94.78
70954;BME280;58618;47.490;8.736;2023-02-03T00:41:43;98020.53;;;3.25;94.97
70954;BME280;58618;47.490;8.736;2023-02-03T00:44:10;98022.91;;;3.26;94.90
70954;BME280;58618;47.490;8.736;2023-02-03T00:46:37;98020.28;;;3.13;96.29
70954;BME280;58618;47.490;8.736;2023-02-03T00:49:05;98023.84;;;3.19;95.83
70954;BME280;58618;47.490;8.736;2023-02-03T00:51:33;98030.19;;;3.02;95.72
70954;BME280;58618;47.490;8.736;2023-02-03T00:54:01;98031.19;;;3.01;96.79
70954;BME280;58618;47.490;8.736;2023-02-03T00:56:28;98038.47;;;3.04;96.55
70954;BME280;58618;47.490;8.736;2023-02-03T00:58:55;98038.38;;;2.90;96.99
70954;BME280;58618;47.490;8.736;2023-02-03T01:01:22;98037.41;;;2.64;98.40
70954;BME280;58618;47.490;8.736;2023-02-03T01:03:49;98042.53;;;2.49;99.02
70954;BME280;58618;47.490;8.736;2023-02-03T01:06:18;98044.13;;;2.29;100.00
70954;BME280;58618;47.490;8.736;2023-02-03T01:08:47;98038.13;;;2.15;100.00
70954;BME280;58618;47.490;8.736;2023-02-03T01:11:16;98050.41;;;2.11;100.00
70954;BME280;58618;47.490;8.736;2023-02-03T01:13:44;98053.81;;;2.19;100.00
70954;BME280;58618;47.490;8.736;2023-02-03T01:16:13;98058.47;;;2.15;100.00
70954;BME280;58618;47.490;8.736;2023-02-03T01:18:41;98069.00;;;2.12;100.00
70954;BME280;58618;47.490;8.736;2023-02-03T01:21:11;98073.94;;;2.13;100.00
70954;BME280;58618;47.490;8.736;2023-02-03T01:23:38;98080.47;;;2.23;100.00
70954;BME280;58618;47.490;8.736;2023-02-03T01:26:09;98071.03;;;2.17;100.00
70954;BME280;58618;47.490;8.736;2023-02-03T01:28:38;98066.28;;;2.13;100.00
70954;BME280;58618;47.490;8.736;2023-02-03T01:31:10;98072.31;;;2.27;100.00
70954;BME280;58618;47.490;8.736;2023-02-03T01:33:38;98074.19;;;2.19;100.00
70954;BME280;58618;47.490;8.736;2023-02-03T01:36:07;98088.00;;;2.31;100.00
70954;BME280;58618;47.490;8.736;2023-02-03T01:38:35;98087.16;;;2.45;100.00
70954;BME280;58618;47.490;8.736;2023-02-03T01:41:06;98083.03;;;2.44;100.00
70954;BME280;58618;47.490;8.736;2023-02-03T01:43:36;98081.59;;;2.56;100.00
70954;BME280;58618;47.490;8.736;2023-02-03T01:46:06;98071.78;;;2.53;100.00
70954;BME280;58618;47.490;8.736;2023-02-03T01:48:41;98076.16;;;2.59;100.00
70954;BME280;58618;47.490;8.736;2023-02-03T01:51:09;98070.75;;;2.47;100.00
70954;BME280;58618;47.490;8.736;2023-02-03T01:53:36;98065.97;;;2.59;100.00
70954;BME280;58618;47.490;8.736;2023-02-03T01:56:04;98056.50;;;2.53;100.00
70954;BME280;58618;47.490;8.736;2023-02-03T01:58:36;98061.59;;;2.53;100.00
70954;BME280;58618;47.490;8.736;2023-02-03T02:01:04;98054.38;;;2.57;100.00
70954;BME280;58618;47.490;8.736;2023-02-03T02:03:36;98069.97;;;2.68;100.00
70954;BME280;58618;47.490;8.736;2023-02-03T02:06:07;98065.81;;;2.67;100.00
70954;BME280;58618;47.490;8.736;2023-02-03T02:08:35;98077.38;;;2.70;100.00
70954;BME280;58618;47.490;8.736;2023-02-03T02:11:03;98076.16;;;2.59;100.00
70954;BME280;58618;47.490;8.736;2023-02-03T02:13:35;98076.88;;;2.74;100.00
70954;BME280;58618;47.490;8.736;2023-02-03T02:16:09;98075.72;;;3.05;99.61
70954;BME280;58618;47.490;8.736;2023-02-03T02:18:59;98060.16;;;3.21;97.22
70954;BME280;58618;47.490;8.736;2023-02-03T02:21:58;98059.84;;;3.37;96.09
70954;BME280;58618;47.490;8.736;2023-02-03T02:30:56;98053.38;;;3.82;91.87
70954;BME280;58618;47.490;8.736;2023-02-03T02:33:35;98045.94;;;3.80;93.70
70954;BME280;58618;47.490;8.736;2023-02-03T02:36:15;98048.91;;;3.91;92.65
70954;BME280;58618;47.490;8.736;2023-02-03T02:38:49;98037.28;;;3.81;91.67
70954;BME280;58618;47.490;8.736;2023-02-03T02:41:23;98018.28;;;3.97;91.74
70954;BME280;58618;47.490;8.736;2023-02-03T02:43:59;98003.16;;;3.96;91.01
70954;BME280;58618;47.490;8.736;2023-02-03T02:46:30;97988.66;;;3.96;90.45
70954;BME280;58618;47.490;8.736;2023-02-03T02:49:03;97987.09;;;4.02;90.49
70954;BME280;58618;47.490;8.736;2023-02-03T02:51:33;98002.00;;;4.05;89.67
70954;BME280;58618;47.490;8.736;2023-02-03T02:54:06;98008.66;;;3.93;90.31
70954;BME280;58618;47.490;8.736;2023-02-03T02:56:37;98006.72;;;4.01;89.70
70954;BME280;58618;47.490;8.736;2023-02-03T02:59:06;98016.50;;;3.98;91.15
70954;BME280;58618;47.490;8.736;2023-02-03T03:01:35;98018.09;;;3.99;90.15
70954;BME280;58618;47.490;8.736;2023-02-03T03:04:06;98003.94;;;3.90;90.03
70954;BME280;58618;47.490;8.736;2023-02-03T03:06:41;98016.16;;;4.01;89.94
70954;BME280;58618;47.490;8.736;2023-02-03T03:09:11;98007.91;;;4.12;89.40
70954;BME280;58618;47.490;8.736;2023-02-03T03:11:55;98023.25;;;4.12;90.28
70954;BME280;58618;47.490;8.736;2023-02-03T03:14:26;98027.13;;;4.08;89.86
70954;BME280;58618;47.490;8.736;2023-02-03T03:17:00;98024.97;;;4.05;89.59
70954;BME280;58618;47.490;8.736;2023-02-03T03:19:31;98014.22;;;4.16;88.62
70954;BME280;58618;47.490;8.736;2023-02-03T03:22:03;98014.63;;;4.26;88.52
70954;BME280;58618;47.490;8.736;2023-02-03T03:24:33;98027.97;;;4.28;88.43
70954;BME280;58618;47.490;8.736;2023-02-03T03:27:07;98021.88;;;4.29;87.96
70954;BME280;58618;47.490;8.736;2023-02-03T03:29:39;98019.31;;;4.29;88.70
70954;BME280;58618;47.490;8.736;2023-02-03T03:32:08;97997.31;;;4.21;87.28
70954;BME280;58618;47.490;8.736;2023-02-03T03:34:38;98009.09;;;4.29;87.03
70954;BME280;58618;47.490;8.736;2023-02-03T03:37:10;98003.63;;;4.32;87.38
70954;BME280;58618;47.490;8.736;2023-02-03T03:39:44;97991.84;;;4.31;87.92
70954;BME280;58618;47.490;8.736;2023-02-03T03:42:19;97990.25;;;4.30;87.59
70954;BME280;58618;47.490;8.736;2023-02-03T03:44:51;97991.25;;;4.36;86.73
70954;BME280;58618;47.490;8.736;2023-02-03T03:47:24;98004.59;;;4.31;87.16
70954;BME280;58618;47.490;8.736;2023-02-03T03:49:56;98016.97;;;4.28;87.74
70954;BME280;58618;47.490;8.736;2023-02-03T03:52:29;98019.72;;;4.26;86.77
70954;BME280;58618;47.490;8.736;2023-02-03T03:54:59;98025.63;;;4.27;87.63
70954;BME280;58618;47.490;8.736;2023-02-03T03:57:30;98008.13;;;4.23;88.67
70954;BME280;58618;47.490;8.736;2023-02-03T04:00:02;98007.56;;;4.28;86.72
70954;BME280;58618;47.490;8.736;2023-02-03T04:02:31;97998.50;;;4.12;85.87
70954;BME280;58618;47.490;8.736;2023-02-03T04:05:02;97990.63;;;4.14;87.10
70954;BME280;58618;47.490;8.736;2023-02-03T04:07:37;97979.22;;;4.23;86.43
70954;BME280;58618;47.490;8.736;2023-02-03T04:10:06;97978.47;;;4.16;86.72
70954;BME280;58618;47.490;8.736;2023-02-03T04:12:38;97975.31;;;4.14;86.14
70954;BME280;58618;47.490;8.736;2023-02-03T04:15:07;97976.06;;;4.08;86.95
70954;BME280;58618;47.490;8.736;2023-02-03T04:17:34;97981.59;;;4.05;86.85
70954;BME280;58618;47.490;8.736;2023-02-03T04:20:04;97962.16;;;4.10;86.43
70954;BME280;58618;47.490;8.736;2023-02-03T04:22:32;97967.47;;;4.15;87.51
70954;BME280;58618;47.490;8.736;2023-02-03T04:24:59;97970.59;;;4.11;86.07
70954;BME280;58618;47.490;8.736;2023-02-03T04:27:26;97971.78;;;4.02;86.62
70954;BME280;58618;47.490;8.736;2023-02-03T04:29:54;97980.78;;;3.98;86.50
70954;BME280;58618;47.490;8.736;2023-02-03T04:32:21;97982.97;;;4.01;86.76
70954;BME280;58618;47.490;8.736;2023-02-03T04:34:48;97973.72;;;4.00;86.24
70954;BME280;58618;47.490;8.736;2023-02-03T04:37:17;97975.69;;;4.04;86.93
70954;BME280;58618;47.490;8.736;2023-02-03T04:39:45;97964.66;;;3.97;86.88
70954;BME280;58618;47.490;8.736;2023-02-03T04:42:12;97957.22;;;4.09;87.14
70954;BME280;58618;47.490;8.736;2023-02-03T04:44:40;97961.94;;;4.05;87.02
70954;BME280;58618;47.490;8.736;2023-02-03T04:47:07;97954.09;;;4.00;86.62
70954;BME280;58618;47.490;8.736;2023-02-03T04:49:34;97969.78;;;3.91;86.98
70954;BME280;58618;47.490;8.736;2023-02-03T04:52:01;97978.97;;;3.78;87.61
70954;BME280;58618;47.490;8.736;2023-02-03T04:54:31;97998.00;;;3.76;87.52
70954;BME280;58618;47.490;8.736;2023-02-03T04:56:59;98011.38;;;3.85;88.55
70954;BME280;58618;47.490;8.736;2023-02-03T04:59:27;98020.41;;;3.80;89.48
70954;BME280;58618;47.490;8.736;2023-02-03T05:01:54;98016.91;;;3.95;89.78
70954;BME280;58618;47.490;8.736;2023-02-03T05:04:21;98022.38;;;3.92;89.05
70954;BME280;58618;47.490;8.736;2023-02-03T05:06:49;98020.41;;;3.80;89.60
70954;BME280;58618;47.490;8.736;2023-02-03T05:09:16;98030.63;;;3.80;90.68
70954;BME280;58618;47.490;8.736;2023-02-03T05:11:45;98026.50;;;3.79;91.61
70954;BME280;58618;47.490;8.736;2023-02-03T05:14:12;98023.19;;;3.86;90.93
70954;BME280;58618;47.490;8.736;2023-02-03T05:16:40;98029.28;;;3.91;90.77
70954;BME280;58618;47.490;8.736;2023-02-03T05:19:07;98030.25;;;3.97;89.63
70954;BME280;58618;47.490;8.736;2023-02-03T05:21:34;98033.59;;;3.91;90.18
70954;BME280;58618;47.490;8.736;2023-02-03T05:24:02;98045.00;;;3.95;90.35
70954;BME280;58618;47.490;8.736;2023-02-03T05:26:31;98038.31;;;3.94;90.15
70954;BME280;58618;47.490;8.736;2023-02-03T05:29:00;98037.72;;;3.98;89.00
70954;BME280;58618;47.490;8.736;2023-02-03T05:31:27;98027.50;;;3.98;88.93
70954;BME280;58618;47.490;8.736;2023-02-03T05:33:54;98020.81;;;3.97;88.95
70954;BME280;58618;47.490;8.736;2023-02-03T05:36:21;98028.31;;;3.99;88.16
70954;BME280;58618;47.490;8.736;2023-02-03T05:38:49;98024.78;;;4.00;87.78
70954;BME280;58618;47.490;8.736;2023-02-03T05:41:16;98041.06;;;3.99;88.17
70954;BME280;58618;47.490;8.736;2023-02-03T05:44:02;98057.16;;;3.93;87.22
70954;BME280;58618;47.490;8.736;2023-02-03T05:46:29;98061.28;;;3.94;89.01
70954;BME280;58618;47.490;8.736;2023-02-03T05:48:57;98062.09;;;4.01;90.15
70954;BME280;58618;47.490;8.736;2023-02-03T05:51:25;98073.63;;;3.97;88.11
70954;BME280;58618;47.490;8.736;2023-02-03T05:53:53;98074.25;;;3.99;87.69
70954;BME280;58618;47.490;8.736;2023-02-03T05:56:20;98081.31;;;3.97;88.53
70954;BME280;58618;47.490;8.736;2023-02-03T05:58:47;98071.50;;;4.00;87.97
70954;BME280;58618;47.490;8.736;2023-02-03T06:01:17;98055.63;;;4.05;88.20
70954;BME280;58618;47.490;8.736;2023-02-03T06:03:46;98038.16;;;4.15;88.30
70954;BME280;58618;47.490;8.736;2023-02-03T06:06:14;98011.06;;;4.14;86.65
70954;BME280;58618;47.490;8.736;2023-02-03T06:08:41;98020.09;;;4.16;86.97
70954;BME280;58618;47.490;8.736;2023-02-03T06:11:09;98003.59;;;4.19;85.30
70954;BME280;58618;47.490;8.736;2023-02-03T06:13:37;98010.88;;;4.22;86.47
70954;BME280;58618;47.490;8.736;2023-02-03T06:16:04;98010.69;;;4.30;86.10
70954;BME280;58618;47.490;8.736;2023-02-03T06:18:33;98005.19;;;4.33;85.97
70954;BME280;58618;47.490;8.736;2023-02-03T06:21:00;98002.84;;;4.32;85.45
70954;BME280;58618;47.490;8.736;2023-02-03T06:23:27;98002.44;;;4.21;84.49
70954;BME280;58618;47.490;8.736;2023-02-03T06:25:55;98015.22;;;4.28;85.14
70954;BME280;58618;47.490;8.736;2023-02-03T06:28:25;98010.28;;;4.27;85.37
70954;BME280;58618;47.490;8.736;2023-02-03T06:30:52;98015.59;;;4.25;85.12
70954;BME280;58618;47.490;8.736;2023-02-03T06:33:19;98029.16;;;4.25;85.84
70954;BME280;58618;47.490;8.736;2023-02-03T06:35:48;98029.94;;;4.33;85.86
70954;BME280;58618;47.490;8.736;2023-02-03T06:38:15;98017.38;;;4.31;84.92
70954;BME280;58618;47.490;8.736;2023-02-03T06:40:45;98030.34;;;4.36;85.80
70954;BME280;58618;47.490;8.736;2023-02-03T06:43:12;98046.84;;;4.40;85.30
70954;BME280;58618;47.490;8.736;2023-02-03T06:45:39;98057.88;;;4.47;84.75
70954;BME280;58618;47.490;8.736;2023-02-03T06:48:06;98053.53;;;4.41;84.56
70954;BME280;58618;47.490;8.736;2023-02-03T06:50:34;98070.84;;;4.52;84.52
70954;BME280;58618;47.490;8.736;2023-02-03T06:53:02;98072.03;;;4.56;84.14
70954;BME280;58618;47.490;8.736;2023-02-03T06:55:29;98075.75;;;4.60;85.84
70954;BME280;58618;47.490;8.736;2023-02-03T06:57:56;98062.97;;;4.47;85.13
70954;BME280;58618;47.490;8.736;2023-02-03T07:00:23;98063.19;;;4.52;84.54
70954;BME280;58618;47.490;8.736;2023-02-03T07:02:52;98079.88;;;4.61;83.05
70954;BME280;58618;47.490;8.736;2023-02-03T07:05:19;98085.81;;;4.68;83.86
70954;BME280;58618;47.490;8.736;2023-02-03T07:07:46;98077.16;;;4.70;83.85
70954;BME280;58618;47.490;8.736;2023-02-03T07:10:15;98091.91;;;4.81;82.63
70954;BME280;58618;47.490;8.736;2023-02-03T07:12:42;98095.81;;;4.77;83.09
70954;BME280;58618;47.490;8.736;2023-02-03T07:15:10;98102.72;;;4.83;83.41
70954;BME280;58618;47.490;8.736;2023-02-03T07:17:39;98099.97;;;4.91;82.54
70954;BME280;58618;47.490;8.736;2023-02-03T07:20:07;98083.44;;;5.00;82.92
70954;BME280;58618;47.490;8.736;2023-02-03T07:22:34;98094.44;;;5.20;81.30
70954;BME280;58618;47.490;8.736;2023-02-03T07:25:04;98099.56;;;5.33;81.14
70954;BME280;58618;47.490;8.736;2023-02-03T07:27:32;98095.59;;;5.31;81.00
70954;BME280;58618;47.490;8.736;2023-02-03T07:29:59;98107.00;;;5.41;80.80
70954;BME280;58618;47.490;8.736;2023-02-03T07:32:26;98108.59;;;5.29;80.79
70954;BME280;58618;47.490;8.736;2023-02-03T07:34:54;98093.47;;;5.28;80.73
70954;BME280;58618;47.490;8.736;2023-02-03T07:37:21;98079.66;;;5.29;81.37
70954;BME280;58618;47.490;8.736;2023-02-03T07:39:48;98057.09;;;5.13;81.43
70954;BME280;58618;47.490;8.736;2023-02-03T07:42:16;98051.00;;;5.07;80.95
70954;BME280;58618;47.490;8.736;2023-02-03T07:44:45;98060.63;;;5.05;79.89
70954;BME280;58618;47.490;8.736;2023-02-03T07:47:12;98066.13;;;5.15;81.91
70954;BME280;58618;47.490;8.736;2023-02-03T07:49:40;98062.53;;;5.29;81.35
70954;BME280;58618;47.490;8.736;2023-02-03T07:52:07;98056.22;;;5.45;81.43
70954;BME280;58618;47.490;8.736;2023-02-03T07:54:35;98049.13;;;5.53;81.41
70954;BME280;58618;47.490;8.736;2023-02-03T07:57:02;98068.78;;;5.60;80.74
70954;BME280;58618;47.490;8.736;2023-02-03T07:59:29;98079.03;;;5.60;79.58
70954;BME280;58618;47.490;8.736;2023-02-03T08:01:58;98083.75;;;5.56;79.62
70954;BME280;58618;47.490;8.736;2023-02-03T08:04:25;98082.22;;;5.42;78.69
70954;BME280;58618;47.490;8.736;2023-02-03T08:06:53;98071.00;;;5.49;79.38
70954;BME280;58618;47.490;8.736;2023-02-03T08:09:20;98060.50;;;5.58;78.59
70954;BME280;58618;47.490;8.736;2023-02-03T08:11:47;98047.13;;;5.56;79.54
70954;BME280;58618;47.490;8.736;2023-02-03T08:14:14;98034.50;;;5.61;77.75
70954;BME280;58618;47.490;8.736;2023-02-03T08:16:41;98047.72;;;5.51;77.98
70954;BME280;58618;47.490;8.736;2023-02-03T08:19:10;98069.41;;;5.48;77.82
70954;BME280;58618;47.490;8.736;2023-02-03T08:21:38;98070.75;;;5.58;78.48
70954;BME280;58618;47.490;8.736;2023-02-03T08:24:06;98074.66;;;5.67;78.13
70954;BME280;58618;47.490;8.736;2023-02-03T08:26:34;98081.00;;;5.58;77.17
70954;BME280;58618;47.490;8.736;2023-02-03T08:29:02;98068.91;;;5.78;77.98
70954;BME280;58618;47.490;8.736;2023-02-03T08:31:29;98081.25;;;6.01;76.70
70954;BME280;58618;47.490;8.736;2023-02-03T08:33:57;98079.81;;;6.18;76.52
70954;BME280;58618;47.490;8.736;2023-02-03T08:36:25;98077.13;;;6.38;75.12
70954;BME280;58618;47.490;8.736;2023-02-03T08:38:52;98060.22;;;6.30;74.94
70954;BME280;58618;47.490;8.736;2023-02-03T08:41:19;98062.00;;;6.61;73.82
70954;BME280;58618;47.490;8.736;2023-02-03T08:43:47;98055.38;;;6.47;74.07
70954;BME280;58618;47.490;8.736;2023-02-03T08:46:17;98048.75;;;6.89;73.13
70954;BME280;58618;47.490;8.736;2023-02-03T08:48:44;98047.13;;;6.94;72.22
70954;BME280;58618;47.490;8.736;2023-02-03T08:51:12;98047.50;;;6.73;71.08
70954;BME280;58618;47.490;8.736;2023-02-03T08:53:41;98053.25;;;6.68;71.85
70954;BME280;58618;47.490;8.736;2023-02-03T08:56:10;98055.47;;;6.65;70.74
70954;BME280;58618;47.490;8.736;2023-02-03T08:58:39;98066.34;;;6.60;70.86
70954;BME280;58618;47.490;8.736;2023-02-03T09:01:07;98085.69;;;6.56;71.38
70954;BME280;58618;47.490;8.736;2023-02-03T09:03:35;98073.34;;;6.40;71.57
70954;BME280;58618;47.490;8.736;2023-02-03T09:06:05;98067.28;;;6.34;71.93
70954;BME280;58618;47.490;8.736;2023-02-03T09:08:33;98066.28;;;6.35;72.48
70954;BME280;58618;47.490;8.736;2023-02-03T09:11:02;98055.88;;;6.30;71.50
70954;BME280;58618;47.490;8.736;2023-02-03T09:13:33;98070.03;;;6.40;70.88
70954;BME280;58618;47.490;8.736;2023-02-03T09:16:00;98069.84;;;6.34;71.68
70954;BME280;58618;47.490;8.736;2023-02-03T09:18:27;98075.97;;;6.33;70.45
70954;BME280;58618;47.490;8.736;2023-02-03T09:20:59;98072.41;;;6.34;71.29
70954;BME280;58618;47.490;8.736;2023-02-03T09:23:27;98078.31;;;6.35;70.54
70954;BME280;58618;47.490;8.736;2023-02-03T09:25:54;98068.69;;;6.30;71.06
70954;BME280;58618;47.490;8.736;2023-02-03T09:28:23;98064.31;;;6.38;71.12
70954;BME280;58618;47.490;8.736;2023-02-03T09:30:50;98054.28;;;6.36;70.52
70954;BME280;58618;47.490;8.736;2023-02-03T09:33:18;98040.44;;;6.44;69.38
70954;BME280;58618;47.490;8.736;2023-02-03T09:35:51;98017.56;;;6.42;70.75
70954;BME280;58618;47.490;8.736;2023-02-03T09:38:18;98037.28;;;6.66;70.07
70954;BME280;58618;47.490;8.736;2023-02-03T09:40:50;98031.13;;;6.74;69.24
70954;BME280;58618;47.490;8.736;2023-02-03T09:43:33;98038.72;;;6.87;69.49
70954;BME280;58618;47.490;8.736;2023-02-03T09:46:05;98046.72;;;6.97;68.44
70954;BME280;58618;47.490;8.736;2023-02-03T09:48:36;98060.41;;;7.09;69.36
70954;BME280;58618;47.490;8.736;2023-02-03T09:51:15;98053.72;;;7.08;67.56
70954;BME280;58618;47.490;8.736;2023-02-03T09:53:47;98070.13;;;7.26;68.19
70954;BME280;58618;47.490;8.736;2023-02-03T09:56:24;98068.41;;;7.19;67.02
70954;BME280;58618;47.490;8.736;2023-02-03T09:58:54;98043.03;;;7.11;67.90
70954;BME280;58618;47.490;8.736;2023-02-03T10:01:24;98029.75;;;6.96;66.98
70954;BME280;58618;47.490;8.736;2023-02-03T10:03:59;98047.88;;;7.19;67.31
70954;BME280;58618;47.490;8.736;2023-02-03T10:06:32;98069.00;;;7.21;68.56
70954;BME280;58618;47.490;8.736;2023-02-03T10:09:14;98052.44;;;7.17;66.45
70954;BME280;58618;47.490;8.736;2023-02-03T10:15:09;98061.78;;;7.30;65.92
70954;BME280;58618;47.490;8.736;2023-02-03T10:17:44;98065.66;;;7.39;66.29
70954;BME280;58618;47.490;8.736;2023-02-03T10:20:17;98075.16;;;7.39;66.13
70954;BME280;58618;47.490;8.736;2023-02-03T10:22:50;98078.56;;;7.51;66.15
70954;BME280;58618;47.490;8.736;2023-02-03T10:25:19;98068.59;;;7.61;65.32
70954;BME280;58618;47.490;8.736;2023-02-03T10:27:52;98071.41;;;7.89;65.65
70954;BME280;58618;47.490;8.736;2023-02-03T10:30:24;98050.72;;;8.02;65.47
70954;BME280;58618;47.490;8.736;2023-02-03T10:32:53;98058.81;;;8.18;65.08
70954;BME280;58618;47.490;8.736;2023-02-03T10:35:25;98050.63;;;8.39;64.29
70954;BME280;58618;47.490;8.736;2023-02-03T10:37:57;98044.88;;;8.55;62.99
70954;BME280;58618;47.490;8.736;2023-02-03T10:40:25;98041.50;;;8.55;62.91
70954;BME280;58618;47.490;8.736;2023-02-03T10:42:54;98035.69;;;8.59;62.56
70954;BME280;58618;47.490;8.736;2023-02-03T10:45:41;98044.22;;;8.95;63.59
70954;BME280;58618;47.490;8.736;2023-02-03T10:48:12;98034.38;;;8.92;61.84
70954;BME280;58618;47.490;8.736;2023-02-03T10:50:47;98031.69;;;9.21;60.66
70954;BME280;58618;47.490;8.736;2023-02-03T10:53:22;98022.84;;;9.17;60.77
70954;BME280;58618;47.490;8.736;2023-02-03T10:55:51;98039.31;;;9.28;60.21
70954;BME280;58618;47.490;8.736;2023-02-03T10:58:30;98040.28;;;9.39;60.72
70954;BME280;58618;47.490;8.736;2023-02-03T11:01:10;98032.47;;;9.33;62.06
70954;BME280;58618;47.490;8.736;2023-02-03T11:03:41;98020.75;;;9.03;62.32
70954;BME280;58618;47.490;8.736;2023-02-03T11:06:10;98020.06;;;8.96;62.64
70954;BME280;58618;47.490;8.736;2023-02-03T11:08:39;98002.50;;;8.93;62.19
70954;BME280;58618;47.490;8.736;2023-02-03T11:11:08;98008.09;;;9.13;61.27
70954;BME280;58618;47.490;8.736;2023-02-03T11:13:39;98002.47;;;9.04;62.06
70954;BME280;58618;47.490;8.736;2023-02-03T11:16:12;98005.19;;;8.74;61.75
70954;BME280;58618;47.490;8.736;2023-02-03T11:18:45;97997.03;;;8.77;62.08
70954;BME280;58618;47.490;8.736;2023-02-03T11:21:15;97980.03;;;8.76;62.69
70954;BME280;58618;47.490;8.736;2023-02-03T11:23:47;97988.53;;;8.77;61.70
70954;BME280;58618;47.490;8.736;2023-02-03T11:26:18;98001.50;;;8.70;63.40
70954;BME280;58618;47.490;8.736;2023-02-03T11:28:50;98002.06;;;8.72;62.37
70954;BME280;58618;47.490;8.736;2023-02-03T11:31:22;97993.22;;;8.68;61.41
70954;BME280;58618;47.490;8.736;2023-02-03T11:33:56;97995.25;;;8.66;61.98
70954;BME280;58618;47.490;8.736;2023-02-03T11:36:26;97993.44;;;8.78;62.47
70954;BME280;58618;47.490;8.736;2023-02-03T11:39:18;98007.09;;;8.90;61.76
70954;BME280;58618;47.490;8.736;2023-02-03T11:41:46;97993.88;;;8.75;62.64
70954;BME280;58618;47.490;8.736;2023-02-03T11:44:19;97994.22;;;8.67;61.50
70954;BME280;58618;47.490;8.736;2023-02-03T11:46:50;98006.53;;;8.65;61.73
70954;BME280;58618;47.490;8.736;2023-02-03T11:52:26;98007.97;;;9.08;60.37
70954;BME280;58618;47.490;8.736;2023-02-03T11:55:05;98003.28;;;9.05;61.91
70954;BME280;58618;47.490;8.736;2023-02-03T11:57:44;97998.56;;;9.25;60.74
70954;BME280;58618;47.490;8.736;2023-02-03T12:00:22;97993.53;;;9.18;60.84
70954;BME280;58618;47.490;8.736;2023-02-03T12:03:19;97987.19;;;8.98;61.54
70954;BME280;58618;47.490;8.736;2023-02-03T12:06:09;97972.63;;;8.92;62.41
70954;BME280;58618;47.490;8.736;2023-02-03T12:08:48;97972.63;;;8.68;63.62
70954;BME280;58618;47.490;8.736;2023-02-03T12:11:29;97974.88;;;8.76;62.35
70954;BME280;58618;47.490;8.736;2023-02-03T12:14:14;97980.91;;;8.70;61.74
70954;BME280;58618;47.490;8.736;2023-02-03T12:16:56;98001.69;;;8.57;65.32
70954;BME280;58618;47.490;8.736;2023-02-03T12:19:35;97995.09;;;8.50;62.94
70954;BME280;58618;47.490;8.736;2023-02-03T12:22:13;98003.69;;;8.43;63.42
70954;BME280;58618;47.490;8.736;2023-02-03T12:24:51;98000.22;;;8.38;64.05
70954;BME280;58618;47.490;8.736;2023-02-03T12:27:33;97987.56;;;8.25;65.92
70954;BME280;58618;47.490;8.736;2023-02-03T12:30:08;97965.97;;;8.26;65.93
70954;BME280;58618;47.490;8.736;2023-02-03T12:32:41;97971.38;;;8.36;65.27
70954;BME280;58618;47.490;8.736;2023-02-03T12:35:15;97964.66;;;8.46;65.20
70954;BME280;58618;47.490;8.736;2023-02-03T12:37:48;97956.06;;;8.41;65.39
70954;BME280;58618;47.490;8.736;2023-02-03T12:40:21;97944.75;;;8.30;64.39
70954;BME280;58618;47.490;8.736;2023-02-03T12:42:54;97924.72;;;8.21;66.57
70954;BME280;58618;47.490;8.736;2023-02-03T12:45:25;97929.72;;;8.16;65.34
70954;BME280;58618;47.490;8.736;2023-02-03T12:47:55;97923.28;;;8.13;65.08
70954;BME280;58618;47.490;8.736;2023-02-03T12:50:30;97930.31;;;8.18;65.74
70954;BME280;58618;47.490;8.736;2023-02-03T12:53:01;97936.44;;;8.17;66.22
70954;BME280;58618;47.490;8.736;2023-02-03T12:55:33;97922.03;;;8.16;67.34
70954;BME280;58618;47.490;8.736;2023-02-03T12:58:04;97924.06;;;8.14;67.11
70954;BME280;58618;47.490;8.736;2023-02-03T13:00:38;97913.31;;;8.17;66.37
70954;BME280;58618;47.490;8.736;2023-02-03T13:03:13;97897.56;;;8.13;64.97
70954;BME280;58618;47.490;8.736;2023-02-03T13:05:48;97914.00;;;8.24;66.83
70954;BME280;58618;47.490;8.736;2023-02-03T13:08:22;97911.09;;;8.09;65.34
70954;BME280;58618;47.490;8.736;2023-02-03T13:10:54;97917.66;;;8.04;65.71
70954;BME280;58618;47.490;8.736;2023-02-03T13:13:30;97922.00;;;7.92;66.34
70954;BME280;58618;47.490;8.736;2023-02-03T13:16:01;97915.97;;;7.98;67.07
70954;BME280;58618;47.490;8.736;2023-02-03T13:18:35;97913.97;;;8.00;66.67
70954;BME280;58618;47.490;8.736;2023-02-03T13:21:04;97907.16;;;8.06;67.36
70954;BME280;58618;47.490;8.736;2023-02-03T13:23:31;97903.69;;;8.00;67.50
70954;BME280;58618;47.490;8.736;2023-02-03T13:26:15;97875.19;;;7.90;67.46
70954;BME280;58618;47.490;8.736;2023-02-03T13:29:00;97881.69;;;7.93;66.74
70954;BME280;58618;47.490;8.736;2023-02-03T13:31:40;97860.56;;;8.02;67.61
70954;BME280;58618;47.490;8.736;2023-02-03T13:34:28;97864.16;;;8.25;66.16
70954;BME280;58618;47.490;8.736;2023-02-03T13:37:19;97871.63;;;8.15;66.70
70954;BME280;58618;47.490;8.736;2023-02-03T13:40:03;97879.34;;;8.15;68.06
70954;BME280;58618;47.490;8.736;2023-02-03T13:42:35;97871.63;;;8.15;66.83